createdAt,value
2023-04-19T00:04:19.144Z,101845.66
2023-04-19T00:09:22.078Z,101838.97
2023-04-19T00:14:26.178Z,101835.66
2023-04-19T00:19:28.875Z,101826.59
2023-04-19T00:24:32.064Z,101822.47
2023-04-19T00:29:36.151Z,101821.66
2023-04-19T00:34:38.889Z,101817.59
2023-04-19T00:39:41.591Z,101808.41
2023-04-19T00:44:45.712Z,101804.03
2023-04-19T00:49:48.470Z,101794.00
2023-04-19T00:54:52.287Z,101795.72
2023-04-19T00:59:58.131Z,101788.72
2023-04-19T01:05:01.006Z,101789.25
2023-04-19T01:10:03.923Z,101793.00
2023-04-19T01:15:09.699Z,101791.91
2023-04-19T01:20:13.497Z,101788.66
2023-04-19T01:25:17.586Z,101786.72
2023-04-19T01:30:20.310Z,101776.75
2023-04-19T01:35:23.075Z,101773.47
2023-04-19T01:40:28.393Z,101763.72
2023-04-19T01:45:33.093Z,101762.13
2023-04-19T01:50:36.214Z,101754.78
2023-04-19T01:55:41.894Z,101751.16
2023-04-19T02:00:44.646Z,101745.69
2023-04-19T02:05:47.316Z,101732.00
2023-04-19T02:10:51.452Z,101728.47
2023-04-19T02:15:54.201Z,101716.34
2023-04-19T02:20:57.782Z,101707.94
2023-04-19T02:26:03.174Z,101714.13
2023-04-19T02:31:06.892Z,101708.13
2023-04-19T02:36:11.006Z,101703.97
2023-04-19T02:41:15.714Z,101699.94
2023-04-19T02:46:18.436Z,101702.78
2023-04-19T02:51:21.240Z,101705.22
2023-04-19T02:56:25.360Z,101706.28
2023-04-19T03:01:29.219Z,101711.03
2023-04-19T03:06:32.432Z,101702.56
2023-04-19T03:11:36.955Z,101704.16
2023-04-19T03:16:39.946Z,101705.84
2023-04-19T03:21:42.997Z,101704.84
2023-04-19T03:26:47.212Z,101700.56
2023-04-19T03:31:51.127Z,101702.81
2023-04-19T03:36:54.918Z,101700.22
2023-04-19T03:41:59.188Z,101678.94
2023-04-19T03:47:27.930Z,101666.75
2023-04-19T03:52:33.355Z,101670.66
2023-04-19T03:57:37.654Z,101668.03
2023-04-19T04:02:50.002Z,101666.00
2023-04-19T04:07:52.926Z,101663.38
2023-04-19T04:12:58.448Z,101657.09
2023-04-19T04:18:10.837Z,101639.56
2023-04-19T04:23:14.387Z,101636.13
2023-04-19T04:28:24.402Z,101622.56
2023-04-19T04:33:27.983Z,101623.72
2023-04-19T04:38:32.472Z,101632.06
2023-04-19T04:43:36.819Z,101638.78
2023-04-19T04:48:39.727Z,101638.34
2023-04-19T04:53:42.564Z,101652.44
2023-04-19T04:58:47.529Z,101642.84
2023-04-19T05:03:57.327Z,101643.78
2023-04-19T05:09:00.171Z,101635.03
2023-04-19T05:14:10.006Z,101631.47
2023-04-19T05:19:12.903Z,101625.75
2023-04-19T05:24:21.082Z,101622.09
2023-04-19T05:29:26.119Z,101622.34
2023-04-19T05:34:31.459Z,101616.59
2023-04-19T05:39:35.380Z,101618.94
2023-04-19T05:44:39.385Z,101608.81
2023-04-19T05:49:43.399Z,101620.09
2023-04-19T05:55:02.470Z,101609.41
2023-04-19T06:00:09.718Z,101607.00
2023-04-19T06:05:35.830Z,101609.03
2023-04-19T06:10:51.880Z,101614.66
2023-04-19T06:15:57.396Z,101618.59
2023-04-19T06:21:00.061Z,101601.44
2023-04-19T06:26:02.735Z,101607.44
2023-04-19T06:31:06.908Z,101620.19
2023-04-19T06:36:10.582Z,101633.41
2023-04-19T06:41:13.303Z,101631.09
2023-04-19T06:46:17.380Z,101620.50
2023-04-19T06:51:20.138Z,101622.53
2023-04-19T06:56:41.563Z,101620.09
2023-04-19T07:01:45.672Z,101620.19
2023-04-19T07:06:49.914Z,101631.00
2023-04-19T07:11:52.612Z,101632.81
2023-04-19T07:16:56.794Z,101631.00
2023-04-19T07:21:59.514Z,101640.31
2023-04-19T07:27:02.735Z,101637.41
2023-04-19T07:32:06.958Z,101633.94
2023-04-19T07:37:09.671Z,101616.75
2023-04-19T07:42:12.348Z,101623.47
2023-04-19T07:47:16.401Z,101617.84
2023-04-19T07:52:19.109Z,101617.56
2023-04-19T07:57:21.805Z,101610.25
2023-04-19T08:02:26.986Z,101618.56
2023-04-19T08:07:29.705Z,101605.81
2023-04-19T08:12:40.580Z,101609.13
2023-04-19T08:17:47.175Z,101612.84
2023-04-19T08:22:49.942Z,101608.31
2023-04-19T08:27:52.719Z,101605.13
2023-04-19T08:32:57.376Z,101602.69
2023-04-19T08:38:02.007Z,101602.19
2023-04-19T08:43:06.788Z,101594.75
2023-04-19T08:48:12.588Z,101588.25
2023-04-19T08:53:24.839Z,101587.00
2023-04-19T08:58:45.664Z,101585.34
2023-04-19T09:04:09.568Z,101580.09
2023-04-19T09:14:27.270Z,101548.19
2023-04-19T09:19:46.679Z,101546.22
2023-04-19T09:29:55.679Z,101535.09
2023-04-19T09:35:00.952Z,101533.03
2023-04-19T09:40:22.890Z,101544.66
2023-04-19T09:45:30.507Z,101533.16
2023-04-19T09:50:50.324Z,101526.38
2023-04-19T09:56:02.050Z,101518.47
2023-04-19T10:01:14.921Z,101521.44
2023-04-19T10:11:27.839Z,101500.75
2023-04-19T10:16:31.579Z,101487.09
2023-04-19T10:21:36.572Z,101510.84
2023-04-19T10:27:11.190Z,101499.28
2023-04-19T10:32:14.823Z,101485.84
2023-04-19T10:37:19.023Z,101486.38
2023-04-19T10:42:21.848Z,101470.91
2023-04-19T10:47:42.445Z,101465.66
2023-04-19T10:52:46.597Z,101462.97
2023-04-19T10:58:08.165Z,101448.03
2023-04-19T11:03:53.579Z,101433.50
2023-04-19T11:08:58.251Z,101439.09
2023-04-19T11:14:02.442Z,101424.41
2023-04-19T11:19:05.131Z,101412.41
2023-04-19T11:24:10.024Z,101381.78
2023-04-19T11:29:13.003Z,101391.59
2023-04-19T11:34:16.124Z,101368.69
2023-04-19T11:39:21.381Z,101347.88
2023-04-19T11:44:24.081Z,101348.13
2023-04-19T11:49:27.348Z,101340.31
2023-04-19T11:54:31.363Z,101331.50
2023-04-19T11:59:35.662Z,101336.91
2023-04-19T12:04:38.951Z,101341.91
2023-04-19T12:09:43.025Z,101324.81
2023-04-19T12:14:53.034Z,101312.38
2023-04-19T12:19:55.670Z,101317.31
2023-04-19T12:25:00.042Z,101316.22
2023-04-19T12:30:02.668Z,101300.97
2023-04-19T12:35:06.779Z,101305.59
2023-04-19T12:40:12.407Z,101308.47
2023-04-19T12:45:15.214Z,101295.09
2023-04-19T12:50:17.886Z,101283.25
2023-04-19T12:55:21.945Z,101283.47
2023-04-19T13:00:24.734Z,101283.16
2023-04-19T13:05:27.418Z,101279.56
2023-04-19T13:10:31.447Z,101255.97
2023-04-19T13:15:34.139Z,101245.88
2023-04-19T13:20:36.823Z,101244.66
2023-04-19T13:25:40.837Z,101230.13
2023-04-19T13:30:43.497Z,101222.31
2023-04-19T13:35:46.236Z,101197.31
2023-04-19T13:40:50.769Z,101197.63
2023-04-19T13:45:53.842Z,101181.06
2023-04-19T13:50:56.914Z,101178.72
2023-04-19T13:56:01.113Z,101175.19
2023-04-19T14:01:03.961Z,101157.69
2023-04-19T14:06:07.049Z,101166.38
2023-04-19T14:11:11.306Z,101165.66
2023-04-19T14:16:14.010Z,101153.22
2023-04-19T14:21:16.698Z,101149.94
2023-04-19T14:26:20.738Z,101152.28
2023-04-19T14:31:23.502Z,101129.34
2023-04-19T14:36:26.595Z,101138.09
2023-04-19T14:41:30.697Z,101133.72
2023-04-19T14:46:33.421Z,101140.66
2023-04-19T14:51:36.135Z,101137.50
2023-04-19T14:56:40.170Z,101122.38
2023-04-19T15:01:42.933Z,101110.47
2023-04-19T15:06:46.051Z,101118.72
2023-04-19T15:11:50.124Z,101110.47
2023-04-19T15:16:52.784Z,101101.53
2023-04-19T15:21:55.653Z,101102.34
2023-04-19T15:26:59.978Z,101105.72
2023-04-19T15:32:04.559Z,101119.25
2023-04-19T15:37:08.077Z,101111.47
2023-04-19T15:42:12.204Z,101123.88
2023-04-19T15:47:14.870Z,101116.94
2023-04-19T15:52:18.853Z,101121.56
2023-04-19T15:57:22.934Z,101122.47
2023-04-19T16:02:26.075Z,101122.94
2023-04-19T16:07:28.904Z,101128.06
2023-04-19T16:12:32.970Z,101130.56
2023-04-19T16:17:35.770Z,101126.16
2023-04-19T16:22:38.563Z,101127.72
2023-04-19T16:27:44.036Z,101125.13
2023-04-19T16:32:46.800Z,101128.78
2023-04-19T16:37:49.675Z,101124.97
2023-04-19T16:42:53.728Z,101130.41
2023-04-19T16:47:56.418Z,101117.47
2023-04-19T16:53:02.078Z,101119.47
2023-04-19T16:58:06.270Z,101119.84
2023-04-19T17:03:10.210Z,101113.25
2023-04-19T17:08:13.020Z,101125.03
2023-04-19T17:13:17.067Z,101117.94
2023-04-19T17:18:19.781Z,101127.19
2023-04-19T17:23:22.504Z,101123.88
2023-04-19T17:28:27.611Z,101123.63
2023-04-19T17:33:30.294Z,101129.88
2023-04-19T17:38:33.094Z,101123.88
2023-04-19T17:43:37.201Z,101126.88
2023-04-19T17:48:39.948Z,101122.94
2023-04-19T17:53:42.700Z,101119.38
2023-04-19T17:58:46.834Z,101117.63
2023-04-19T18:03:49.743Z,101118.81
2023-04-19T18:08:52.537Z,101123.38
2023-04-19T18:13:56.795Z,101124.69
2023-04-19T18:18:59.565Z,101118.31
2023-04-19T18:24:02.300Z,101131.88
2023-04-19T18:29:06.429Z,101120.88
2023-04-19T18:34:11.919Z,101121.72
2023-04-19T18:39:15.404Z,101123.88
2023-04-19T18:44:44.326Z,101129.16
2023-04-19T18:49:46.113Z,101139.50
2023-04-19T18:55:00.966Z,101139.47
2023-04-19T19:00:06.714Z,101135.09
2023-04-19T19:05:13.431Z,101151.00
2023-04-19T19:10:20.812Z,101148.38
2023-04-19T19:15:27.285Z,101153.72
2023-04-19T19:20:30.200Z,101151.78
2023-04-19T19:25:33.218Z,101150.28
2023-04-19T19:30:39.722Z,101151.09
2023-04-19T19:35:42.829Z,101148.78
2023-04-19T19:45:52.596Z,101136.81
2023-04-19T19:51:25.034Z,101142.47
2023-04-19T19:56:21.881Z,101137.59
2023-04-19T20:01:28.081Z,101143.22
2023-04-19T20:11:38.453Z,101131.88
2023-04-19T20:16:42.712Z,101130.28
2023-04-19T20:21:46.011Z,101129.63
2023-04-19T20:26:48.751Z,101134.38
2023-04-19T20:31:52.965Z,101129.31
2023-04-19T20:36:55.663Z,101116.16
2023-04-19T20:41:58.366Z,101124.78
2023-04-19T20:47:02.421Z,101111.72
2023-04-19T20:52:06.421Z,101089.41
2023-04-19T20:57:09.860Z,101079.97
2023-04-19T21:02:13.944Z,101082.53
2023-04-19T21:07:16.954Z,101071.66
2023-04-19T21:12:19.656Z,101079.25
2023-04-19T21:17:23.935Z,101074.19
2023-04-19T21:22:26.795Z,101077.03
2023-04-19T21:27:30.204Z,101081.81
2023-04-19T21:32:34.577Z,101077.28
2023-04-19T21:37:37.700Z,101069.66
2023-04-19T21:42:40.496Z,101080.53
2023-04-19T21:47:44.539Z,101077.81
2023-04-19T21:52:47.323Z,101075.00
2023-04-19T21:57:50.163Z,101062.03
2023-04-19T22:02:54.377Z,101058.06
2023-04-19T22:07:57.841Z,101048.09
2023-04-19T22:13:02.371Z,101053.72
2023-04-19T22:18:06.593Z,101061.03
2023-04-19T22:23:09.369Z,101067.94
2023-04-19T22:28:12.074Z,101085.03
2023-04-19T22:33:16.138Z,101080.59
2023-04-19T22:38:18.914Z,101087.13
2023-04-19T22:43:22.724Z,101083.59
2023-04-19T22:48:28.039Z,101087.13
2023-04-19T22:53:30.831Z,101076.06
2023-04-19T22:58:33.555Z,101066.53
2023-04-19T23:03:37.712Z,101052.84
2023-04-19T23:08:41.395Z,101048.41
2023-04-19T23:13:44.360Z,101032.44
2023-04-19T23:18:48.493Z,101023.06
2023-04-19T23:23:51.321Z,101015.88
2023-04-19T23:28:54.122Z,100996.31
2023-04-19T23:33:58.169Z,100987.28
2023-04-19T23:39:01.138Z,100981.00
2023-04-19T23:44:03.890Z,100969.31
2023-04-19T23:49:08.625Z,100968.31
2023-04-19T23:54:11.482Z,100968.22
2023-04-19T23:59:14.215Z,100948.63
